sensor_id;sensor_type;location;lat;lon;timestamp;temperature;humidity
20946;DHT22;10632;51.276;7.116;2023-05-19T00:01:25;9.90;99.90
20946;DHT22;10632;51.276;7.116;2023-05-19T00:03:55;9.90;99.90
20946;DHT22;10632;51.276;7.116;2023-05-19T00:06:28;9.90;99.90
20946;DHT22;10632;51.276;7.116;2023-05-19T00:08:57;9.90;99.90
20946;DHT22;10632;51.276;7.116;2023-05-19T00:11:26;9.90;99.90
20946;DHT22;10632;51.276;7.116;2023-05-19T00:13:55;9.90;99.90
20946;DHT22;10632;51.276;7.116;2023-05-19T00:16:28;9.90;99.90
20946;DHT22;10632;51.276;7.116;2023-05-19T00:19:04;9.90;99.90
20946;DHT22;10632;51.276;7.116;2023-05-19T00:21:35;9.90;99.90
20946;DHT22;10632;51.276;7.116;2023-05-19T00:24:04;9.80;99.90
20946;DHT22;10632;51.276;7.116;2023-05-19T00:26:36;9.80;99.90
20946;DHT22;10632;51.276;7.116;2023-05-19T00:29:03;9.80;99.90
20946;DHT22;10632;51.276;7.116;2023-05-19T00:31:30;9.80;99.90
20946;DHT22;10632;51.276;7.116;2023-05-19T00:34:06;9.70;99.90
20946;DHT22;10632;51.276;7.116;2023-05-19T00:36:36;9.70;99.90
20946;DHT22;10632;51.276;7.116;2023-05-19T00:39:04;9.70;99.90
20946;DHT22;10632;51.276;7.116;2023-05-19T00:41:31;9.70;99.90
20946;DHT22;10632;51.276;7.116;2023-05-19T00:43:59;9.70;99.90
20946;DHT22;10632;51.276;7.116;2023-05-19T00:46:33;9.70;99.90
20946;DHT22;10632;51.276;7.116;2023-05-19T00:49:03;9.70;99.90
20946;DHT22;10632;51.276;7.116;2023-05-19T00:51:39;9.60;99.90
20946;DHT22;10632;51.276;7.116;2023-05-19T00:54:09;9.60;99.90
20946;DHT22;10632;51.276;7.116;2023-05-19T00:56:40;9.60;99.90
20946;DHT22;10632;51.276;7.116;2023-05-19T00:59:10;9.60;99.90
20946;DHT22;10632;51.276;7.116;2023-05-19T01:01:38;9.60;99.90
20946;DHT22;10632;51.276;7.116;2023-05-19T01:04:05;9.50;99.90
20946;DHT22;10632;51.276;7.116;2023-05-19T01:06:35;9.50;99.90
20946;DHT22;10632;51.276;7.116;2023-05-19T01:09:03;9.50;99.90
20946;DHT22;10632;51.276;7.116;2023-05-19T01:11:30;9.50;99.90
20946;DHT22;10632;51.276;7.116;2023-05-19T01:13:58;9.50;99.90
20946;DHT22;10632;51.276;7.116;2023-05-19T01:16:30;9.40;99.90
20946;DHT22;10632;51.276;7.116;2023-05-19T01:19:00;9.50;99.90
20946;DHT22;10632;51.276;7.116;2023-05-19T01:27:53;9.40;99.90
20946;DHT22;10632;51.276;7.116;2023-05-19T01:30:30;9.40;99.90
20946;DHT22;10632;51.276;7.116;2023-05-19T01:33:05;9.30;99.90
20946;DHT22;10632;51.276;7.116;2023-05-19T01:35:42;9.30;99.90
20946;DHT22;10632;51.276;7.116;2023-05-19T01:38:24;9.30;99.90
20946;DHT22;10632;51.276;7.116;2023-05-19T01:40:51;9.20;99.90
20946;DHT22;10632;51.276;7.116;2023-05-19T01:43:24;9.20;99.90
20946;DHT22;10632;51.276;7.116;2023-05-19T01:45:58;9.20;99.90
20946;DHT22;10632;51.276;7.116;2023-05-19T01:48:27;9.10;99.90
20946;DHT22;10632;51.276;7.116;2023-05-19T01:50:54;9.10;99.90
20946;DHT22;10632;51.276;7.116;2023-05-19T01:53:22;9.10;99.90
20946;DHT22;10632;51.276;7.116;2023-05-19T01:55:52;9.10;99.90
20946;DHT22;10632;51.276;7.116;2023-05-19T01:58:30;9.10;99.90
20946;DHT22;10632;51.276;7.116;2023-05-19T02:01:05;9.10;99.90
20946;DHT22;10632;51.276;7.116;2023-05-19T02:03:58;9.00;99.90
20946;DHT22;10632;51.276;7.116;2023-05-19T02:06:35;9.00;99.90
20946;DHT22;10632;51.276;7.116;2023-05-19T02:09:10;9.00;99.90
20946;DHT22;10632;51.276;7.116;2023-05-19T02:11:49;9.00;99.90
20946;DHT22;10632;51.276;7.116;2023-05-19T02:14:23;9.00;99.90
20946;DHT22;10632;51.276;7.116;2023-05-19T02:16:53;9.00;99.90
20946;DHT22;10632;51.276;7.116;2023-05-19T02:19:22;9.00;99.90
20946;DHT22;10632;51.276;7.116;2023-05-19T02:21:49;8.90;99.90
20946;DHT22;10632;51.276;7.116;2023-05-19T02:24:17;9.00;99.90
20946;DHT22;10632;51.276;7.116;2023-05-19T02:26:44;9.00;99.90
20946;DHT22;10632;51.276;7.116;2023-05-19T02:29:14;9.00;99.90
20946;DHT22;10632;51.276;7.116;2023-05-19T02:31:43;9.00;99.90
20946;DHT22;10632;51.276;7.116;2023-05-19T02:34:12;9.00;99.90
20946;DHT22;10632;51.276;7.116;2023-05-19T02:36:40;9.00;99.90
20946;DHT22;10632;51.276;7.116;2023-05-19T02:39:08;9.00;99.90
20946;DHT22;10632;51.276;7.116;2023-05-19T02:41:35;9.00;99.90
20946;DHT22;10632;51.276;7.116;2023-05-19T02:44:02;9.00;99.90
20946;DHT22;10632;51.276;7.116;2023-05-19T02:46:29;9.00;99.90
20946;DHT22;10632;51.276;7.116;2023-05-19T02:48:56;9.00;99.90
20946;DHT22;10632;51.276;7.116;2023-05-19T02:51:24;8.90;99.90
20946;DHT22;10632;51.276;7.116;2023-05-19T02:53:51;8.90;99.90
20946;DHT22;10632;51.276;7.116;2023-05-19T02:56:18;8.90;99.90
20946;DHT22;10632;51.276;7.116;2023-05-19T02:58:45;8.90;99.90
20946;DHT22;10632;51.276;7.116;2023-05-19T03:01:12;8.90;99.90
20946;DHT22;10632;51.276;7.116;2023-05-19T03:03:39;9.00;99.90
20946;DHT22;10632;51.276;7.116;2023-05-19T03:06:06;8.90;99.90
20946;DHT22;10632;51.276;7.116;2023-05-19T03:08:35;8.90;99.90
20946;DHT22;10632;51.276;7.116;2023-05-19T03:11:02;9.00;99.90
20946;DHT22;10632;51.276;7.116;2023-05-19T03:13:29;8.90;99.90
20946;DHT22;10632;51.276;7.116;2023-05-19T03:15:56;8.90;99.90
20946;DHT22;10632;51.276;7.116;2023-05-19T03:18:24;8.90;99.90
20946;DHT22;10632;51.276;7.116;2023-05-19T03:20:51;8.90;99.90
20946;DHT22;10632;51.276;7.116;2023-05-19T03:23:19;8.80;99.90
20946;DHT22;10632;51.276;7.116;2023-05-19T03:25:51;8.80;99.90
20946;DHT22;10632;51.276;7.116;2023-05-19T03:28:18;8.80;99.90
20946;DHT22;10632;51.276;7.116;2023-05-19T03:30:46;8.80;99.90
20946;DHT22;10632;51.276;7.116;2023-05-19T03:33:14;8.80;99.90
20946;DHT22;10632;51.276;7.116;2023-05-19T03:35:41;8.80;99.90
20946;DHT22;10632;51.276;7.116;2023-05-19T03:38:09;8.80;99.90
20946;DHT22;10632;51.276;7.116;2023-05-19T03:40:36;8.70;99.90
20946;DHT22;10632;51.276;7.116;2023-05-19T03:43:04;8.70;99.90
20946;DHT22;10632;51.276;7.116;2023-05-19T03:45:32;8.70;99.90
20946;DHT22;10632;51.276;7.116;2023-05-19T03:47:59;8.70;99.90
20946;DHT22;10632;51.276;7.116;2023-05-19T03:50:26;8.70;99.90
20946;DHT22;10632;51.276;7.116;2023-05-19T03:52:53;8.70;99.90
20946;DHT22;10632;51.276;7.116;2023-05-19T03:55:20;8.60;99.90
20946;DHT22;10632;51.276;7.116;2023-05-19T03:57:47;8.60;99.90
20946;DHT22;10632;51.276;7.116;2023-05-19T04:00:16;8.60;99.90
20946;DHT22;10632;51.276;7.116;2023-05-19T04:02:43;8.60;99.90
20946;DHT22;10632;51.276;7.116;2023-05-19T04:05:10;8.50;99.90
20946;DHT22;10632;51.276;7.116;2023-05-19T04:07:37;8.60;99.90
20946;DHT22;10632;51.276;7.116;2023-05-19T04:10:05;8.50;99.90
20946;DHT22;10632;51.276;7.116;2023-05-19T04:12:32;8.50;99.90
20946;DHT22;10632;51.276;7.116;2023-05-19T04:14:59;8.50;99.90
20946;DHT22;10632;51.276;7.116;2023-05-19T04:17:27;8.40;99.90
20946;DHT22;10632;51.276;7.116;2023-05-19T04:19:54;8.50;99.90
20946;DHT22;10632;51.276;7.116;2023-05-19T04:22:21;8.40;99.90
20946;DHT22;10632;51.276;7.116;2023-05-19T04:24:48;8.40;99.90
20946;DHT22;10632;51.276;7.116;2023-05-19T04:27:16;8.30;99.90
20946;DHT22;10632;51.276;7.116;2023-05-19T04:29:43;8.30;99.90
20946;DHT22;10632;51.276;7.116;2023-05-19T04:32:12;8.30;99.90
20946;DHT22;10632;51.276;7.116;2023-05-19T04:40:00;8.30;99.90
20946;DHT22;10632;51.276;7.116;2023-05-19T04:42:27;8.30;99.90
20946;DHT22;10632;51.276;7.116;2023-05-19T04:44:55;8.40;99.90
20946;DHT22;10632;51.276;7.116;2023-05-19T04:47:22;8.40;99.90
20946;DHT22;10632;51.276;7.116;2023-05-19T04:49:52;8.40;99.90
20946;DHT22;10632;51.276;7.116;2023-05-19T04:52:20;8.50;99.90
20946;DHT22;10632;51.276;7.116;2023-05-19T04:54:47;8.60;99.90
20946;DHT22;10632;51.276;7.116;2023-05-19T04:57:15;8.50;99.90
20946;DHT22;10632;51.276;7.116;2023-05-19T04:59:42;8.50;99.90
20946;DHT22;10632;51.276;7.116;2023-05-19T05:02:10;8.50;99.90
20946;DHT22;10632;51.276;7.116;2023-05-19T05:04:37;8.40;99.90
20946;DHT22;10632;51.276;7.116;2023-05-19T05:07:07;8.40;99.90
20946;DHT22;10632;51.276;7.116;2023-05-19T05:09:34;8.30;99.90
20946;DHT22;10632;51.276;7.116;2023-05-19T05:12:02;8.30;99.90
20946;DHT22;10632;51.276;7.116;2023-05-19T05:17:35;8.30;99.90
20946;DHT22;10632;51.276;7.116;2023-05-19T05:20:04;8.40;99.90
20946;DHT22;10632;51.276;7.116;2023-05-19T05:22:32;8.40;99.90
20946;DHT22;10632;51.276;7.116;2023-05-19T05:25:00;8.40;99.90
20946;DHT22;10632;51.276;7.116;2023-05-19T05:27:27;8.40;99.90
20946;DHT22;10632;51.276;7.116;2023-05-19T05:29:55;8.40;99.90
20946;DHT22;10632;51.276;7.116;2023-05-19T05:32:22;8.40;99.90
20946;DHT22;10632;51.276;7.116;2023-05-19T05:34:51;8.50;99.90
20946;DHT22;10632;51.276;7.116;2023-05-19T05:37:17;8.50;99.90
20946;DHT22;10632;51.276;7.116;2023-05-19T05:39:44;8.50;99.90
20946;DHT22;10632;51.276;7.116;2023-05-19T05:42:11;8.60;99.90
20946;DHT22;10632;51.276;7.116;2023-05-19T05:44:38;8.60;99.90
20946;DHT22;10632;51.276;7.116;2023-05-19T05:47:06;8.60;99.90
20946;DHT22;10632;51.276;7.116;2023-05-19T05:50:11;8.70;99.90
20946;DHT22;10632;51.276;7.116;2023-05-19T05:52:47;8.70;99.90
20946;DHT22;10632;51.276;7.116;2023-05-19T05:55:20;8.80;99.90
20946;DHT22;10632;51.276;7.116;2023-05-19T05:57:52;8.90;99.90
20946;DHT22;10632;51.276;7.116;2023-05-19T06:00:36;8.90;99.90
20946;DHT22;10632;51.276;7.116;2023-05-19T06:03:03;9.00;99.90
20946;DHT22;10632;51.276;7.116;2023-05-19T06:08:50;9.10;99.90
20946;DHT22;10632;51.276;7.116;2023-05-19T06:11:17;9.20;99.90
20946;DHT22;10632;51.276;7.116;2023-05-19T06:13:44;9.30;99.90
20946;DHT22;10632;51.276;7.116;2023-05-19T06:16:11;9.50;99.90
20946;DHT22;10632;51.276;7.116;2023-05-19T06:18:38;9.50;99.90
20946;DHT22;10632;51.276;7.116;2023-05-19T06:21:10;9.60;99.90
20946;DHT22;10632;51.276;7.116;2023-05-19T06:23:39;9.70;99.90
20946;DHT22;10632;51.276;7.116;2023-05-19T06:26:07;9.80;99.90
20946;DHT22;10632;51.276;7.116;2023-05-19T06:28:34;9.90;99.90
20946;DHT22;10632;51.276;7.116;2023-05-19T06:31:01;10.00;99.90
20946;DHT22;10632;51.276;7.116;2023-05-19T06:33:28;10.10;99.90
20946;DHT22;10632;51.276;7.116;2023-05-19T06:35:56;10.10;99.90
20946;DHT22;10632;51.276;7.116;2023-05-19T06:38:23;10.20;99.90
20946;DHT22;10632;51.276;7.116;2023-05-19T06:40:50;10.30;99.90
20946;DHT22;10632;51.276;7.116;2023-05-19T06:43:18;10.40;99.90
20946;DHT22;10632;51.276;7.116;2023-05-19T06:45:45;10.50;99.90
20946;DHT22;10632;51.276;7.116;2023-05-19T06:48:12;10.60;99.90
20946;DHT22;10632;51.276;7.116;2023-05-19T06:50:39;10.70;99.90
20946;DHT22;10632;51.276;7.116;2023-05-19T06:53:06;10.80;99.90
20946;DHT22;10632;51.276;7.116;2023-05-19T06:55:33;10.90;99.90
20946;DHT22;10632;51.276;7.116;2023-05-19T06:58:01;11.00;99.90
20946;DHT22;10632;51.276;7.116;2023-05-19T07:00:29;11.10;99.90
20946;DHT22;10632;51.276;7.116;2023-05-19T07:02:56;11.20;99.90
20946;DHT22;10632;51.276;7.116;2023-05-19T07:05:23;11.30;99.90
20946;DHT22;10632;51.276;7.116;2023-05-19T07:07:53;11.40;99.90
20946;DHT22;10632;51.276;7.116;2023-05-19T07:10:20;11.50;99.90
20946;DHT22;10632;51.276;7.116;2023-05-19T07:12:50;11.50;99.90
20946;DHT22;10632;51.276;7.116;2023-05-19T07:15:17;11.60;99.90
20946;DHT22;10632;51.276;7.116;2023-05-19T07:17:46;11.70;99.90
20946;DHT22;10632;51.276;7.116;2023-05-19T07:20:13;11.80;99.90
20946;DHT22;10632;51.276;7.116;2023-05-19T07:22:40;11.80;99.90
20946;DHT22;10632;51.276;7.116;2023-05-19T07:25:08;11.90;99.90
20946;DHT22;10632;51.276;7.116;2023-05-19T07:27:36;11.90;99.90
20946;DHT22;10632;51.276;7.116;2023-05-19T07:30:04;12.00;99.90
20946;DHT22;10632;51.276;7.116;2023-05-19T07:32:31;12.10;99.90
20946;DHT22;10632;51.276;7.116;2023-05-19T07:34:59;12.20;99.90
20946;DHT22;10632;51.276;7.116;2023-05-19T07:37:26;12.20;99.90
20946;DHT22;10632;51.276;7.116;2023-05-19T07:39:53;12.30;99.90
20946;DHT22;10632;51.276;7.116;2023-05-19T07:42:20;12.40;99.90
20946;DHT22;10632;51.276;7.116;2023-05-19T07:44:48;12.50;99.90
20946;DHT22;10632;51.276;7.116;2023-05-19T07:47:14;12.50;99.90
20946;DHT22;10632;51.276;7.116;2023-05-19T07:49:41;12.60;99.90
20946;DHT22;10632;51.276;7.116;2023-05-19T07:52:10;12.70;99.90
20946;DHT22;10632;51.276;7.116;2023-05-19T07:54:37;12.80;99.90
20946;DHT22;10632;51.276;7.116;2023-05-19T07:57:04;12.80;99.90
20946;DHT22;10632;51.276;7.116;2023-05-19T07:59:31;12.90;99.90
20946;DHT22;10632;51.276;7.116;2023-05-19T08:01:58;13.00;99.90
20946;DHT22;10632;51.276;7.116;2023-05-19T08:04:25;13.00;99.90
20946;DHT22;10632;51.276;7.116;2023-05-19T08:06:52;13.10;99.90
20946;DHT22;10632;51.276;7.116;2023-05-19T08:09:21;13.10;99.90
20946;DHT22;10632;51.276;7.116;2023-05-19T08:11:50;13.20;99.90
20946;DHT22;10632;51.276;7.116;2023-05-19T08:14:18;13.30;99.90
20946;DHT22;10632;51.276;7.116;2023-05-19T08:16:47;13.30;99.90
20946;DHT22;10632;51.276;7.116;2023-05-19T08:19:14;13.40;99.90
20946;DHT22;10632;51.276;7.116;2023-05-19T08:21:41;13.40;99.90
20946;DHT22;10632;51.276;7.116;2023-05-19T08:24:09;13.50;99.90
20946;DHT22;10632;51.276;7.116;2023-05-19T08:26:37;13.50;99.90
20946;DHT22;10632;51.276;7.116;2023-05-19T08:29:04;13.60;99.90
20946;DHT22;10632;51.276;7.116;2023-05-19T08:31:31;13.60;99.90
20946;DHT22;10632;51.276;7.116;2023-05-19T08:33:59;13.70;99.90
20946;DHT22;10632;51.276;7.116;2023-05-19T08:36:26;13.80;99.90
20946;DHT22;10632;51.276;7.116;2023-05-19T08:38:55;13.90;99.90
20946;DHT22;10632;51.276;7.116;2023-05-19T08:41:22;14.00;99.90
20946;DHT22;10632;51.276;7.116;2023-05-19T08:43:53;14.10;99.90
20946;DHT22;10632;51.276;7.116;2023-05-19T08:46:24;14.20;99.90
20946;DHT22;10632;51.276;7.116;2023-05-19T08:48:53;14.30;99.90
20946;DHT22;10632;51.276;7.116;2023-05-19T08:51:29;14.40;99.90
20946;DHT22;10632;51.276;7.116;2023-05-19T08:54:07;14.50;99.90
20946;DHT22;10632;51.276;7.116;2023-05-19T08:56:45;14.50;99.90
20946;DHT22;10632;51.276;7.116;2023-05-19T08:59:14;14.50;99.90
20946;DHT22;10632;51.276;7.116;2023-05-19T09:01:44;14.60;99.90
20946;DHT22;10632;51.276;7.116;2023-05-19T09:04:12;14.60;99.90
20946;DHT22;10632;51.276;7.116;2023-05-19T09:06:39;14.70;99.90
20946;DHT22;10632;51.276;7.116;2023-05-19T09:09:10;14.80;99.90
20946;DHT22;10632;51.276;7.116;2023-05-19T09:11:37;14.90;99.90
20946;DHT22;10632;51.276;7.116;2023-05-19T09:14:04;15.00;99.90
20946;DHT22;10632;51.276;7.116;2023-05-19T09:16:33;15.10;99.90
20946;DHT22;10632;51.276;7.116;2023-05-19T09:19:02;15.10;99.90
20946;DHT22;10632;51.276;7.116;2023-05-19T09:21:30;15.20;99.90
20946;DHT22;10632;51.276;7.116;2023-05-19T09:23:57;15.20;99.90
20946;DHT22;10632;51.276;7.116;2023-05-19T09:26:35;15.30;99.90
20946;DHT22;10632;51.276;7.116;2023-05-19T09:29:10;15.30;99.90
20946;DHT22;10632;51.276;7.116;2023-05-19T09:31:38;15.30;99.90
20946;DHT22;10632;51.276;7.116;2023-05-19T09:34:11;15.30;99.90
20946;DHT22;10632;51.276;7.116;2023-05-19T09:36:39;15.30;99.90
20946;DHT22;10632;51.276;7.116;2023-05-19T09:39:14;15.40;99.90
20946;DHT22;10632;51.276;7.116;2023-05-19T09:41:41;15.40;99.90
20946;DHT22;10632;51.276;7.116;2023-05-19T09:44:12;15.40;99.90
20946;DHT22;10632;51.276;7.116;2023-05-19T09:46:47;15.50;99.90
20946;DHT22;10632;51.276;7.116;2023-05-19T09:49:22;15.60;99.90
20946;DHT22;10632;51.276;7.116;2023-05-19T09:51:53;15.70;99.90
20946;DHT22;10632;51.276;7.116;2023-05-19T09:54:21;15.80;99.90
20946;DHT22;10632;51.276;7.116;2023-05-19T09:56:51;15.90;99.90
20946;DHT22;10632;51.276;7.116;2023-05-19T09:59:19;16.00;99.90
20946;DHT22;10632;51.276;7.116;2023-05-19T10:01:52;16.20;99.90
20946;DHT22;10632;51.276;7.116;2023-05-19T10:04:20;16.30;99.90
20946;DHT22;10632;51.276;7.116;2023-05-19T10:06:49;16.30;99.90
20946;DHT22;10632;51.276;7.116;2023-05-19T10:09:21;16.40;99.90
20946;DHT22;10632;51.276;7.116;2023-05-19T10:11:51;16.40;99.90
20946;DHT22;10632;51.276;7.116;2023-05-19T10:14:20;16.40;99.90
20946;DHT22;10632;51.276;7.116;2023-05-19T10:16:50;16.40;99.90
20946;DHT22;10632;51.276;7.116;2023-05-19T10:19:20;16.50;99.90
20946;DHT22;10632;51.276;7.116;2023-05-19T10:21:47;16.80;99.90
20946;DHT22;10632;51.276;7.116;2023-05-19T10:24:14;17.00;99.90
20946;DHT22;10632;51.276;7.116;2023-05-19T10:26:44;17.10;99.90
20946;DHT22;10632;51.276;7.116;2023-05-19T10:29:14;17.00;99.80
20946;DHT22;10632;51.276;7.116;2023-05-19T10:31:43;17.00;99.90
20946;DHT22;10632;51.276;7.116;2023-05-19T10:34:27;17.00;99.20
20946;DHT22;10632;51.276;7.116;2023-05-19T10:37:11;17.00;98.90
20946;DHT22;10632;51.276;7.116;2023-05-19T10:39:42;16.90;99.40
20946;DHT22;10632;51.276;7.116;2023-05-19T10:42:14;16.90;99.90
20946;DHT22;10632;51.276;7.116;2023-05-19T10:44:57;17.00;99.90
20946;DHT22;10632;51.276;7.116;2023-05-19T10:47:25;17.10;99.40
20946;DHT22;10632;51.276;7.116;2023-05-19T10:49:53;17.20;99.60
20946;DHT22;10632;51.276;7.116;2023-05-19T10:52:21;17.20;99.30
20946;DHT22;10632;51.276;7.116;2023-05-19T10:54:50;17.30;99.50
20946;DHT22;10632;51.276;7.116;2023-05-19T10:57:20;17.40;99.00
20946;DHT22;10632;51.276;7.116;2023-05-19T10:59:52;17.60;99.00
20946;DHT22;10632;51.276;7.116;2023-05-19T11:02:38;17.70;98.30
20946;DHT22;10632;51.276;7.116;2023-05-19T11:05:08;17.70;99.10
20946;DHT22;10632;51.276;7.116;2023-05-19T11:07:35;17.80;98.80
20946;DHT22;10632;51.276;7.116;2023-05-19T11:10:06;17.90;98.40
20946;DHT22;10632;51.276;7.116;2023-05-19T11:12:39;17.70;97.40
20946;DHT22;10632;51.276;7.116;2023-05-19T11:15:10;17.50;97.90
20946;DHT22;10632;51.276;7.116;2023-05-19T11:17:39;17.40;98.80
20946;DHT22;10632;51.276;7.116;2023-05-19T11:20:19;17.50;99.60
20946;DHT22;10632;51.276;7.116;2023-05-19T11:23:04;17.70;98.80
20946;DHT22;10632;51.276;7.116;2023-05-19T11:25:41;17.70;98.20
20946;DHT22;10632;51.276;7.116;2023-05-19T11:28:09;17.80;98.80
20946;DHT22;10632;51.276;7.116;2023-05-19T11:30:40;18.00;99.00
20946;DHT22;10632;51.276;7.116;2023-05-19T11:33:08;18.20;98.70
20946;DHT22;10632;51.276;7.116;2023-05-19T11:35:36;18.40;98.20
20946;DHT22;10632;51.276;7.116;2023-05-19T11:38:04;18.50;97.00
20946;DHT22;10632;51.276;7.116;2023-05-19T11:40:32;18.40;97.60
20946;DHT22;10632;51.276;7.116;2023-05-19T11:42:59;18.40;98.80
20946;DHT22;10632;51.276;7.116;2023-05-19T11:45:28;18.50;98.00
20946;DHT22;10632;51.276;7.116;2023-05-19T11:47:57;18.60;97.60
20946;DHT22;10632;51.276;7.116;2023-05-19T11:50:25;18.70;97.90
20946;DHT22;10632;51.276;7.116;2023-05-19T11:52:53;18.80;96.80
20946;DHT22;10632;51.276;7.116;2023-05-19T11:55:21;18.70;96.40
20946;DHT22;10632;51.276;7.116;2023-05-19T11:57:57;18.70;96.80
20946;DHT22;10632;51.276;7.116;2023-05-19T12:00:25;18.70;96.60
20946;DHT22;10632;51.276;7.116;2023-05-19T12:02:52;18.60;96.70
20946;DHT22;10632;51.276;7.116;2023-05-19T12:05:21;18.60;97.20
20946;DHT22;10632;51.276;7.116;2023-05-19T12:07:49;18.60;96.80
20946;DHT22;10632;51.276;7.116;2023-05-19T12:10:21;18.80;96.40
20946;DHT22;10632;51.276;7.116;2023-05-19T12:12:49;18.80;96.80
20946;DHT22;10632;51.276;7.116;2023-05-19T12:15:18;19.00;97.30
20946;DHT22;10632;51.276;7.116;2023-05-19T12:17:48;19.10;97.20
20946;DHT22;10632;51.276;7.116;2023-05-19T12:20:16;19.30;96.70
20946;DHT22;10632;51.276;7.116;2023-05-19T12:22:43;19.40;96.30
20946;DHT22;10632;51.276;7.116;2023-05-19T12:25:10;19.40;95.00
20946;DHT22;10632;51.276;7.116;2023-05-19T12:27:42;19.40;95.80
20946;DHT22;10632;51.276;7.116;2023-05-19T12:30:10;19.20;95.70
20946;DHT22;10632;51.276;7.116;2023-05-19T12:32:37;19.20;95.80
20946;DHT22;10632;51.276;7.116;2023-05-19T12:35:05;19.20;95.80
20946;DHT22;10632;51.276;7.116;2023-05-19T12:37:32;19.20;96.00
20946;DHT22;10632;51.276;7.116;2023-05-19T12:40:01;19.30;96.70
20946;DHT22;10632;51.276;7.116;2023-05-19T12:42:29;19.50;95.20
20946;DHT22;10632;51.276;7.116;2023-05-19T12:45:07;19.40;95.30
20946;DHT22;10632;51.276;7.116;2023-05-19T12:47:35;19.20;95.30
20946;DHT22;10632;51.276;7.116;2023-05-19T12:50:03;19.10;96.10
20946;DHT22;10632;51.276;7.116;2023-05-19T12:52:31;19.20;96.50
20946;DHT22;10632;51.276;7.116;2023-05-19T12:55:01;19.20;96.40
20946;DHT22;10632;51.276;7.116;2023-05-19T12:57:29;19.30;96.30
20946;DHT22;10632;51.276;7.116;2023-05-19T13:00:01;19.50;96.00
20946;DHT22;10632;51.276;7.116;2023-05-19T13:02:32;19.50;95.70
20946;DHT22;10632;51.276;7.116;2023-05-19T13:04:59;19.50;95.40
20946;DHT22;10632;51.276;7.116;2023-05-19T13:07:26;19.40;95.40
20946;DHT22;10632;51.276;7.116;2023-05-19T13:09:53;19.30;95.90
20946;DHT22;10632;51.276;7.116;2023-05-19T13:12:21;19.40;95.90
20946;DHT22;10632;51.276;7.116;2023-05-19T13:14:49;19.40;96.40
20946;DHT22;10632;51.276;7.116;2023-05-19T13:17:15;19.50;95.80
20946;DHT22;10632;51.276;7.116;2023-05-19T13:19:45;19.50;96.00
20946;DHT22;10632;51.276;7.116;2023-05-19T13:22:12;19.40;95.80
20946;DHT22;10632;51.276;7.116;2023-05-19T13:24:39;19.30;95.90
20946;DHT22;10632;51.276;7.116;2023-05-19T13:27:05;19.30;95.80
20946;DHT22;10632;51.276;7.116;2023-05-19T13:29:32;19.30;95.00
20946;DHT22;10632;51.276;7.116;2023-05-19T13:31:59;19.30;95.10
20946;DHT22;10632;51.276;7.116;2023-05-19T13:34:26;19.20;95.50
20946;DHT22;10632;51.276;7.116;2023-05-19T13:36:57;19.20;94.10
20946;DHT22;10632;51.276;7.116;2023-05-19T13:39:23;19.10;94.40
20946;DHT22;10632;51.276;7.116;2023-05-19T13:41:50;19.00;94.70
20946;DHT22;10632;51.276;7.116;2023-05-19T13:44:17;19.00;95.30
20946;DHT22;10632;51.276;7.116;2023-05-19T13:46:44;19.00;95.00
20946;DHT22;10632;51.276;7.116;2023-05-19T13:49:11;19.00;95.40
20946;DHT22;10632;51.276;7.116;2023-05-19T13:51:40;19.10;95.40
20946;DHT22;10632;51.276;7.116;2023-05-19T13:54:09;19.10;95.00
20946;DHT22;10632;51.276;7.116;2023-05-19T13:56:36;19.10;94.80
20946;DHT22;10632;51.276;7.116;2023-05-19T13:59:03;19.10;94.60
20946;DHT22;10632;51.276;7.116;2023-05-19T14:01:30;19.10;94.70
20946;DHT22;10632;51.276;7.116;2023-05-19T14:03:57;19.10;94.30
20946;DHT22;10632;51.276;7.116;2023-05-19T14:06:23;19.20;94.10
20946;DHT22;10632;51.276;7.116;2023-05-19T14:08:52;19.10;93.90
20946;DHT22;10632;51.276;7.116;2023-05-19T14:11:20;19.10;93.90
20946;DHT22;10632;51.276;7.116;2023-05-19T14:13:48;19.10;94.50
20946;DHT22;10632;51.276;7.116;2023-05-19T14:16:15;19.10;94.00
20946;DHT22;10632;51.276;7.116;2023-05-19T14:18:42;19.00;94.30
20946;DHT22;10632;51.276;7.116;2023-05-19T14:21:09;19.00;94.30
20946;DHT22;10632;51.276;7.116;2023-05-19T14:23:36;18.90;94.10
20946;DHT22;10632;51.276;7.116;2023-05-19T14:26:03;18.90;94.30
20946;DHT22;10632;51.276;7.116;2023-05-19T14:28:31;18.90;93.80
20946;DHT22;10632;51.276;7.116;2023-05-19T14:30:58;18.90;94.20
20946;DHT22;10632;51.276;7.116;2023-05-19T14:33:25;19.00;95.00
20946;DHT22;10632;51.276;7.116;2023-05-19T14:35:52;19.10;94.00
20946;DHT22;10632;51.276;7.116;2023-05-19T14:38:19;19.10;94.20
20946;DHT22;10632;51.276;7.116;2023-05-19T14:40:46;19.10;94.00
20946;DHT22;10632;51.276;7.116;2023-05-19T14:43:13;19.00;93.90
20946;DHT22;10632;51.276;7.116;2023-05-19T14:45:43;19.00;93.90
20946;DHT22;10632;51.276;7.116;2023-05-19T14:48:10;19.00;94.30
20946;DHT22;10632;51.276;7.116;2023-05-19T14:50:37;19.00;93.40
20946;DHT22;10632;51.276;7.116;2023-05-19T14:53:04;19.00;93.70
20946;DHT22;10632;51.276;7.116;2023-05-19T14:55:31;19.00;93.30
20946;DHT22;10632;51.276;7.116;2023-05-19T14:57:58;19.00;93.20
20946;DHT22;10632;51.276;7.116;2023-05-19T15:00:25;19.00;93.80
20946;DHT22;10632;51.276;7.116;2023-05-19T15:02:53;19.00;93.60
20946;DHT22;10632;51.276;7.116;2023-05-19T15:05:21;19.00;93.20
20946;DHT22;10632;51.276;7.116;2023-05-19T15:07:50;19.10;92.90
20946;DHT22;10632;51.276;7.116;2023-05-19T15:10:20;19.00;92.40
20946;DHT22;10632;51.276;7.116;2023-05-19T15:12:48;19.00;92.60
20946;DHT22;10632;51.276;7.116;2023-05-19T15:15:15;19.00;93.00
20946;DHT22;10632;51.276;7.116;2023-05-19T15:17:42;19.00;93.50
20946;DHT22;10632;51.276;7.116;2023-05-19T15:20:12;19.00;93.20
20946;DHT22;10632;51.276;7.116;2023-05-19T15:22:42;19.00;93.10
20946;DHT22;10632;51.276;7.116;2023-05-19T15:25:09;19.10;93.00
20946;DHT22;10632;51.276;7.116;2023-05-19T15:27:36;19.10;93.20
20946;DHT22;10632;51.276;7.116;2023-05-19T15:30:04;19.10;92.70
20946;DHT22;10632;51.276;7.116;2023-05-19T15:32:31;19.20;92.30
20946;DHT22;10632;51.276;7.116;2023-05-19T15:34:58;19.10;92.20
20946;DHT22;10632;51.276;7.116;2023-05-19T15:37:26;19.00;91.90
20946;DHT22;10632;51.276;7.116;2023-05-19T15:39:53;19.00;92.60
20946;DHT22;10632;51.276;7.116;2023-05-19T15:42:20;18.90;93.10
20946;DHT22;10632;51.276;7.116;2023-05-19T15:44:47;18.90;92.80
20946;DHT22;10632;51.276;7.116;2023-05-19T15:47:14;18.90;92.90
20946;DHT22;10632;51.276;7.116;2023-05-19T15:49:41;18.90;92.80
20946;DHT22;10632;51.276;7.116;2023-05-19T15:52:07;18.90;92.40
20946;DHT22;10632;51.276;7.116;2023-05-19T15:54:36;18.90;92.30
20946;DHT22;10632;51.276;7.116;2023-05-19T15:57:03;18.80;92.70
20946;DHT22;10632;51.276;7.116;2023-05-19T15:59:29;18.90;93.00
20946;DHT22;10632;51.276;7.116;2023-05-19T16:01:56;18.90;93.10
20946;DHT22;10632;51.276;7.116;2023-05-19T16:04:23;19.00;93.10
20946;DHT22;10632;51.276;7.116;2023-05-19T16:06:50;19.00;93.30